Portada
METAR-TAF:

METAR-TAF

Aeropuertos :

Aeropuerto Internacional de Kunming-Changshui

Kunming, China

latitud: 25-01N, longitud: 102-41E, altitud: 1892 m

Observación

El informe se hizo hace 26 minutos, a las 13:00 UTC
Viento 8 kt del sur-suroeste
Temperatura 12°C
Humedad 76%
Presión 1021 hPa
Visibilidad 10 km o más
sin nubes por debajo de 1500 m y sin presencia de cumulonimbus.

METAR: ZPPP 151300Z 21004MPS CAVOK 12/08 Q1021 NOSIG

Hora: 21:26 (13:26 UTC)

Pronóstico

El informe se hizo hace 6 horas y 18 minutos, a las 07:08 UTC
Pronóstico válido del 15 a las 12 UTC al 16 a las 12 UTC
Viento 16 kt del suroeste
Visibilidad 10 km o más
Nubes dispersas a una altura de 2600 ft

TAF: ZPPP 150708Z 1512/1612 22008MPS 9999 SCT026 TX20/1608Z TN08/1523Z

Observaciones y pronósticos meteorológicos de más de 4000 aeropuertos (mensajes METAR y TAF).

Los puntos amarillos y rojos representan las estaciones disponibles.

Ponga el ratón en el punto deseado para ver el nombre de la estación.

Haga clic para ver las observaciones y los pronósticos meteorológicos.

Para cambiar el mapa : haga clic en los botones verdes con una cruz de color negro para hacer un zoom, en el botón verde con un guión para alejar o en las flechas verdes para mapas adyacentes.


METAR-TAF: